Time;durP1;ratioP1;P1;durP2;ratioP2;P2;SDS_P1;SDS_P2;PMS_P1;PMS_P2;Temp;Humidity;BMP_temperature;BMP_pressure;BME280_temperature;BME280_humidity;BME280_pressure;Samples;Min_cycle;Max_cycle;Signal;HPM_P1;HPM_P2
2022/09/09 00:01:16;;;;;;;1.10;1.10;;;22.40;64.40;;;;;;5058621;28;44073;-60
2022/09/09 00:03:59;;;;;;;1.10;0.90;;;22.40;64.20;;;;;;5047433;28;43457;-60
2022/09/09 00:06:44;;;;;;;1.00;1.00;;;22.40;64.20;;;;;;5048538;28;43363;-60
2022/09/09 00:09:25;;;;;;;1.20;1.10;;;22.40;64.10;;;;;;5056513;28;43324;-60
2022/09/09 00:12:15;;;;;;;0.90;0.90;;;22.40;64.10;;;;;;5064251;28;44045;-60
2022/09/09 00:14:53;;;;;;;1.17;1.02;;;22.40;64.10;;;;;;5047225;28;43348;-60
2022/09/09 00:17:41;;;;;;;1.65;1.00;;;22.40;64.20;;;;;;5058448;28;43506;-60
2022/09/09 00:20:35;;;;;;;0.98;0.98;;;22.40;64.20;;;;;;5060922;28;43487;-60
2022/09/09 00:23:14;;;;;;;1.00;0.80;;;22.40;64.10;;;;;;5088385;27;44971;-60
2022/09/09 00:25:49;;;;;;;0.98;0.90;;;22.40;64.10;;;;;;5064210;28;43848;-60
2022/09/09 00:28:22;;;;;;;0.82;0.82;;;22.40;64.10;;;;;;5061990;28;43521;-60
2022/09/09 00:30:50;;;;;;;1.00;1.00;;;22.40;64.20;;;;;;5056467;28;43467;-60
2022/09/09 00:33:22;;;;;;;0.90;0.90;;;22.30;64.10;;;;;;5052082;28;44044;-60
2022/09/09 00:35:54;;;;;;;1.08;1.08;;;22.40;64.20;;;;;;5056931;28;43543;-60
2022/09/09 00:38:32;;;;;;;1.20;1.10;;;22.40;64.20;;;;;;5060999;28;43486;-60
2022/09/09 00:41:17;;;;;;;1.20;1.10;;;22.30;64.10;;;;;;5055795;28;43423;-60
2022/09/09 00:43:55;;;;;;;1.48;1.00;;;22.40;64.20;;;;;;5051923;28;43798;-60
2022/09/09 00:46:45;;;;;;;1.73;1.20;;;22.30;64.10;;;;;;5058415;28;43360;-60
2022/09/09 00:49:25;;;;;;;1.00;0.90;;;22.30;64.10;;;;;;5051437;28;43501;-60
2022/09/09 00:51:58;;;;;;;1.00;1.00;;;22.30;64.10;;;;;;5055406;28;43427;-60
2022/09/09 00:54:53;;;;;;;1.10;1.00;;;22.30;64.10;;;;;;5056018;28;44957;-60
2022/09/09 00:57:31;;;;;;;0.93;0.93;;;22.30;64.10;;;;;;5062108;28;43420;-60
2022/09/09 01:00:18;;;;;;;1.23;1.13;;;22.30;64.20;;;;;;5047822;28;43428;-60
2022/09/09 01:02:51;;;;;;;1.15;1.05;;;22.30;64.10;;;;;;5055721;28;43588;-59
2022/09/09 01:05:44;;;;;;;0.80;0.80;;;22.30;64.10;;;;;;5059810;28;45032;-60
2022/09/09 01:08:28;;;;;;;0.93;0.93;;;22.30;64.10;;;;;;5044646;28;43538;-60
2022/09/09 01:10:58;;;;;;;1.58;1.30;;;22.30;64.10;;;;;;5052961;28;43468;-60
2022/09/09 01:13:33;;;;;;;1.10;1.00;;;22.30;64.10;;;;;;5053782;28;43428;-60
2022/09/09 01:16:11;;;;;;;1.23;1.13;;;22.30;64.10;;;;;;5050942;28;43841;-60
2022/09/09 01:18:44;;;;;;;1.23;1.00;;;22.30;64.10;;;;;;5078457;27;43708;-60
2022/09/09 01:21:30;;;;;;;1.17;1.08;;;22.30;64.20;;;;;;5053409;28;43498;-60
2022/09/09 01:24:05;;;;;;;1.08;1.00;;;22.30;64.10;;;;;;5078247;28;43490;-60
2022/09/09 01:27:02;;;;;;;1.10;1.00;;;22.30;64.10;;;;;;5043021;28;44909;-60
2022/09/09 01:29:30;;;;;;;0.77;0.77;;;22.30;64.20;;;;;;5048782;28;43444;-60
2022/09/09 01:32:22;;;;;;;0.80;0.80;;;22.20;64.10;;;;;;5057067;28;43471;-60
2022/09/09 01:34:51;;;;;;;0.88;0.88;;;22.30;64.10;;;;;;5060114;28;43423;-60
2022/09/09 01:37:19;;;;;;;1.08;0.90;;;22.20;64.70;;;;;;5046850;28;45267;-60
2022/09/09 01:39:48;;;;;;;1.02;0.93;;;22.20;64.00;;;;;;5051394;28;43440;-60
2022/09/09 01:42:18;;;;;;;1.48;1.10;;;22.20;64.10;;;;;;5045700;28;43508;-60
2022/09/09 01:44:46;;;;;;;1.15;1.05;;;22.20;64.10;;;;;;5059870;28;43427;-61
2022/09/09 01:47:15;;;;;;;0.90;0.90;;;22.20;64.00;;;;;;5030419;28;43730;-59
2022/09/09 01:50:02;;;;;;;0.90;0.90;;;22.20;64.00;;;;;;5056504;28;43942;-60
2022/09/09 01:52:33;;;;;;;1.48;1.10;;;22.20;64.00;;;;;;5058020;28;43446;-60
2022/09/09 01:55:01;;;;;;;1.20;1.10;;;22.20;64.10;;;;;;5033025;28;43502;-60
2022/09/09 01:57:41;;;;;;;1.02;1.00;;;22.20;64.00;;;;;;5051417;28;43822;-60
2022/09/09 02:00:11;;;;;;;1.52;1.02;;;22.20;64.00;;;;;;5058105;28;43889;-60
2022/09/09 02:02:52;;;;;;;1.33;1.10;;;22.20;64.00;;;;;;5059900;28;43451;-60
2022/09/09 02:05:40;;;;;;;1.10;1.10;;;22.20;64.00;;;;;;5053145;28;43526;-60
2022/09/09 02:08:45;;;;;;;0.95;0.95;;;22.20;64.00;;;;;;5085665;27;44765;-60
2022/09/09 02:11:19;;;;;;;0.98;0.90;;;22.20;64.00;;;;;;5059593;28;43486;-60
2022/09/09 02:14:06;;;;;;;1.02;0.95;;;22.20;64.00;;;;;;5049973;28;43609;-60
2022/09/09 02:16:42;;;;;;;0.95;0.95;;;22.20;64.00;;;;;;5057235;28;43575;-59
2022/09/09 02:19:25;;;;;;;1.00;1.00;;;22.10;64.00;;;;;;5057643;28;44990;-60
2022/09/09 02:22:01;;;;;;;;;;;22.10;64.00;;;;;;5060803;28;43513;-60
2022/09/09 02:24:33;;;;;;;0.93;0.93;;;22.10;64.00;;;;;;5047673;28;43411;-60
2022/09/09 02:27:13;;;;;;;1.88;1.10;;;22.10;64.10;;;;;;5038080;28;43412;-60
2022/09/09 02:29:42;;;;;;;1.15;0.90;;;22.10;64.00;;;;;;5059751;28;44687;-60
2022/09/09 02:32:23;;;;;;;1.00;1.00;;;22.10;64.00;;;;;;5058550;28;43538;-60
2022/09/09 02:34:57;;;;;;;1.20;1.00;;;22.10;64.00;;;;;;5048376;28;43426;-60
2022/09/09 02:37:31;;;;;;;0.85;0.85;;;22.10;64.00;;;;;;5057375;28;43541;-60
2022/09/09 02:39:59;;;;;;;1.17;1.10;;;22.10;64.00;;;;;;5057161;28;44953;-60
2022/09/09 02:42:27;;;;;;;1.02;1.00;;;22.10;64.00;;;;;;5048957;28;44011;-60
2022/09/09 02:44:56;;;;;;;1.27;1.17;;;22.10;64.00;;;;;;5052450;28;43416;-60
2022/09/09 02:47:33;;;;;;;0.90;0.90;;;22.10;64.00;;;;;;5058377;28;43403;-60
2022/09/09 02:50:23;;;;;;;1.00;1.00;;;22.10;64.00;;;;;;5057836;28;44946;-60
2022/09/09 02:53:15;;;;;;;1.05;1.05;;;22.10;64.00;;;;;;5050723;28;43495;-60
2022/09/09 02:55:53;;;;;;;0.75;0.75;;;22.10;64.00;;;;;;5058264;28;43456;-60
2022/09/09 02:58:21;;;;;;;0.75;0.75;;;22.10;64.00;;;;;;5054061;28;43558;-60
2022/09/09 03:01:02;;;;;;;1.38;1.00;;;22.10;64.00;;;;;;5031797;28;43981;-60
2022/09/09 03:03:31;;;;;;;1.20;1.10;;;22.10;64.00;;;;;;5052225;28;43493;-60
2022/09/09 03:06:02;;;;;;;;;;;22.00;63.90;;;;;;5058123;28;43484;-60
2022/09/09 03:08:30;;;;;;;1.80;1.17;;;22.00;64.00;;;;;;5050584;28;43365;-60
2022/09/09 03:11:02;;;;;;;0.95;0.90;;;22.00;64.00;;;;;;5050846;28;43865;-60
2022/09/09 03:13:33;;;;;;;0.90;0.90;;;22.00;64.00;;;;;;5050540;28;43382;-60
2022/09/09 03:16:01;;;;;;;0.85;0.85;;;22.00;64.10;;;;;;5061451;28;43383;-60
2022/09/09 03:18:32;;;;;;;0.90;0.70;;;22.00;64.00;;;;;;5058156;28;43405;-60
2022/09/09 03:20:59;;;;;;;0.82;0.82;;;22.00;64.00;;;;;;5059985;28;44868;-60
2022/09/09 03:23:29;;;;;;;0.90;0.90;;;22.00;64.00;;;;;;5069880;28;43914;-60
2022/09/09 03:26:00;;;;;;;;;;;22.00;63.90;;;;;;5060789;28;43442;-60
2022/09/09 03:28:37;;;;;;;0.73;0.73;;;22.00;64.00;;;;;;5050476;28;43487;-60
2022/09/09 03:31:06;;;;;;;1.00;1.00;;;22.00;64.00;;;;;;5050809;28;45324;-60
2022/09/09 03:33:40;;;;;;;1.10;1.00;;;22.00;64.00;;;;;;5040161;28;44827;-60
2022/09/09 03:36:11;;;;;;;1.17;1.08;;;22.00;64.00;;;;;;5048999;28;43998;-59
2022/09/09 03:38:39;;;;;;;1.30;1.05;;;22.00;64.00;;;;;;5052475;28;43588;-59
2022/09/09 03:41:07;;;;;;;0.95;0.90;;;22.00;64.00;;;;;;5058258;28;43800;-60
2022/09/09 03:43:36;;;;;;;1.23;1.15;;;22.00;64.00;;;;;;5061069;28;43418;-60
2022/09/09 03:46:04;;;;;;;0.90;0.90;;;22.00;64.70;;;;;;5050698;28;43501;-59
2022/09/09 03:48:32;;;;;;;1.25;1.15;;;22.00;64.00;;;;;;5053331;28;43412;-60
2022/09/09 03:51:01;;;;;;;1.83;1.00;;;22.00;63.90;;;;;;5051096;28;44048;-59
2022/09/09 03:53:31;;;;;;;0.85;0.85;;;22.00;64.00;;;;;;5059198;28;43463;-60
2022/09/09 03:56:00;;;;;;;0.95;0.95;;;22.00;64.00;;;;;;5059063;28;43518;-60
2022/09/09 03:58:30;;;;;;;2.05;1.10;;;22.00;64.00;;;;;;5049984;28;43448;-60
2022/09/09 04:01:08;;;;;;;1.02;0.93;;;22.00;64.00;;;;;;5072312;28;44940;-60
2022/09/09 04:03:37;;;;;;;0.93;0.90;;;21.90;64.00;;;;;;5049243;28;43471;-60
2022/09/09 04:06:07;;;;;;;0.98;0.98;;;21.90;64.00;;;;;;5049318;28;43458;-59
2022/09/09 04:08:36;;;;;;;0.90;0.90;;;22.00;64.10;;;;;;5050174;28;43426;-60
2022/09/09 04:11:06;;;;;;;0.90;0.90;;;21.90;63.90;;;;;;5059131;28;44194;-60
2022/09/09 04:13:37;;;;;;;0.82;0.82;;;21.90;64.00;;;;;;5048564;28;43952;-60
2022/09/09 04:16:05;;;;;;;0.80;0.80;;;21.90;64.00;;;;;;5050825;28;43565;-60
2022/09/09 04:18:34;;;;;;;1.17;0.90;;;21.90;64.00;;;;;;5049155;28;43471;-60
2022/09/09 04:21:04;;;;;;;0.80;0.80;;;21.90;64.60;;;;;;5060234;28;43759;-60
2022/09/09 04:23:34;;;;;;;0.85;0.85;;;21.90;64.00;;;;;;5065932;28;43407;-60
2022/09/09 04:26:02;;;;;;;1.15;0.98;;;21.90;64.00;;;;;;5052329;28;43734;-60
2022/09/09 04:28:35;;;;;;;0.90;0.90;;;21.90;64.00;;;;;;5055373;28;43420;-60
2022/09/09 04:31:10;;;;;;;0.93;0.77;;;21.90;64.00;;;;;;5049177;28;44973;-60
2022/09/09 04:33:40;;;;;;;1.35;0.80;;;21.90;64.00;;;;;;5053797;28;43891;-60
2022/09/09 04:36:09;;;;;;;0.98;0.98;;;21.90;64.00;;;;;;5049340;28;43411;-60
2022/09/09 04:38:37;;;;;;;0.98;0.90;;;21.90;64.10;;;;;;5041683;28;43537;-60
2022/09/09 04:41:05;;;;;;;2.70;1.00;;;21.90;64.00;;;;;;5050999;28;45239;-59
2022/09/09 04:43:34;;;;;;;1.00;0.98;;;21.90;64.00;;;;;;5057344;28;43812;-60
2022/09/09 04:46:05;;;;;;;1.00;1.00;;;21.90;64.10;;;;;;5056076;28;43486;-59
2022/09/09 04:48:33;;;;;;;0.90;0.90;;;21.90;64.10;;;;;;5059770;28;43557;-60
2022/09/09 04:51:05;;;;;;;0.82;0.82;;;21.90;64.10;;;;;;5052908;28;44664;-59
2022/09/09 04:53:37;;;;;;;0.82;0.82;;;21.90;64.10;;;;;;5051289;28;43459;-59
2022/09/09 04:56:14;;;;;;;;;;;21.80;64.00;;;;;;5061082;28;43453;-59
2022/09/09 04:58:47;;;;;;;0.80;0.80;;;21.80;64.00;;;;;;5051701;28;43558;-60
2022/09/09 05:01:19;;;;;;;0.70;0.70;;;21.80;64.10;;;;;;5052166;28;44229;-60
2022/09/09 05:03:48;;;;;;;0.70;0.70;;;21.90;64.10;;;;;;5058336;28;43543;-60
2022/09/09 05:06:21;;;;;;;0.80;0.80;;;21.80;64.00;;;;;;5060923;28;43497;-60
2022/09/09 05:08:52;;;;;;;1.00;0.90;;;21.80;64.10;;;;;;5050578;28;43391;-60
2022/09/09 05:11:32;;;;;;;1.38;0.70;;;21.80;64.10;;;;;;5051064;28;44975;-60
2022/09/09 05:14:05;;;;;;;0.77;0.77;;;21.80;64.00;;;;;;5054289;28;43498;-59
2022/09/09 05:16:33;;;;;;;1.40;0.68;;;21.80;64.00;;;;;;5062698;28;43372;-60
2022/09/09 05:19:03;;;;;;;1.00;0.90;;;21.80;64.10;;;;;;5055219;28;43995;-60
2022/09/09 05:21:42;;;;;;;1.05;0.63;;;21.80;64.00;;;;;;5050814;28;44330;-60
2022/09/09 05:24:13;;;;;;;0.85;0.85;;;21.80;64.00;;;;;;5060846;28;43484;-59
2022/09/09 05:26:41;;;;;;;0.82;0.73;;;21.80;64.00;;;;;;5048984;28;43448;-60
2022/09/09 05:29:08;;;;;;;0.88;0.82;;;21.80;64.00;;;;;;5050189;28;43431;-60
2022/09/09 05:31:36;;;;;;;0.77;0.77;;;21.80;64.00;;;;;;5054096;28;44018;-60
2022/09/09 05:34:08;;;;;;;0.75;0.65;;;21.80;64.20;;;;;;5060962;28;43490;-60
2022/09/09 05:36:36;;;;;;;0.70;0.70;;;21.80;64.00;;;;;;5050171;28;43470;-60
2022/09/09 05:39:04;;;;;;;0.70;0.70;;;21.80;64.00;;;;;;5053462;28;43494;-60
2022/09/09 05:41:33;;;;;;;0.60;0.60;;;21.80;64.10;;;;;;5060894;28;44070;-60
2022/09/09 05:44:03;;;;;;;0.80;0.80;;;21.80;64.00;;;;;;5061871;28;43490;-60
2022/09/09 05:46:35;;;;;;;0.95;0.77;;;21.80;64.10;;;;;;5049838;28;43590;-60
2022/09/09 05:49:05;;;;;;;0.70;0.70;;;21.80;64.20;;;;;;5051746;28;43456;-60
2022/09/09 05:51:34;;;;;;;0.68;0.55;;;21.80;64.10;;;;;;5057967;28;43794;-60
2022/09/09 05:54:06;;;;;;;0.93;0.70;;;21.80;64.10;;;;;;5044710;28;43638;-59
2022/09/09 05:56:38;;;;;;;0.75;0.75;;;21.80;64.20;;;;;;5048764;28;43448;-59
2022/09/09 05:59:08;;;;;;;1.60;0.73;;;21.80;64.20;;;;;;5053945;28;43622;-60
2022/09/09 06:01:40;;;;;;;1.65;0.70;;;21.80;64.10;;;;;;5060242;28;44680;-59
2022/09/09 06:04:13;;;;;;;0.70;0.70;;;21.80;64.10;;;;;;5048707;28;43393;-60
2022/09/09 06:06:41;;;;;;;0.80;0.80;;;21.80;64.20;;;;;;5047851;28;43406;-60
2022/09/09 06:09:15;;;;;;;1.40;0.80;;;21.80;64.30;;;;;;5055366;28;43518;-60
2022/09/09 06:11:43;;;;;;;1.10;1.00;;;21.70;64.20;;;;;;5059776;28;44234;-60
2022/09/09 06:14:12;;;;;;;1.00;0.80;;;21.80;64.20;;;;;;5048731;28;43617;-59
2022/09/09 06:16:43;;;;;;;0.90;0.90;;;21.80;64.20;;;;;;5048249;28;43444;-59
2022/09/09 06:19:17;;;;;;;1.13;0.70;;;21.70;64.20;;;;;;5050398;28;43894;-59
2022/09/09 06:21:45;;;;;;;0.60;0.60;;;21.80;64.20;;;;;;5061306;28;44960;-59
2022/09/09 06:24:16;;;;;;;0.93;0.80;;;21.80;64.20;;;;;;5031432;28;43471;-59
2022/09/09 06:26:45;;;;;;;0.90;0.60;;;21.80;64.20;;;;;;5050842;28;43474;-60
2022/09/09 06:29:18;;;;;;;0.77;0.77;;;21.80;64.20;;;;;;5059107;28;43542;-59
2022/09/09 06:31:45;;;;;;;0.63;0.63;;;21.80;64.20;;;;;;5061131;28;44962;-59
2022/09/09 06:34:20;;;;;;;0.70;0.70;;;21.80;64.20;;;;;;5057085;28;43443;-59
2022/09/09 06:36:52;;;;;;;0.65;0.65;;;21.80;64.20;;;;;;5054531;28;43388;-59
2022/09/09 06:39:21;;;;;;;1.92;1.00;;;21.80;64.80;;;;;;5060046;28;44064;-59
2022/09/09 06:41:52;;;;;;;0.90;0.70;;;21.80;64.20;;;;;;5049885;28;44814;-59
2022/09/09 06:44:52;;;;;;;0.82;0.77;;;21.80;64.20;;;;;;5048700;28;43522;-59
2022/09/09 06:47:34;;;;;;;0.63;0.63;;;21.80;64.30;;;;;;5040364;28;43458;-59
2022/09/09 06:50:02;;;;;;;0.70;0.70;;;21.80;64.30;;;;;;5057111;28;43494;-59
2022/09/09 06:52:33;;;;;;;0.90;0.60;;;21.80;64.20;;;;;;5050645;28;43999;-59
2022/09/09 06:55:02;;;;;;;0.95;0.70;;;21.80;64.20;;;;;;5059469;28;43516;-59
2022/09/09 06:57:31;;;;;;;0.68;0.68;;;21.80;64.20;;;;;;5060883;27;43516;-60
2022/09/09 07:00:09;;;;;;;0.57;0.57;;;21.80;64.20;;;;;;5056070;28;43518;-59
2022/09/09 07:02:39;;;;;;;0.60;0.60;;;21.80;64.30;;;;;;5049494;28;45128;-59
2022/09/09 07:05:08;;;;;;;0.80;0.80;;;21.70;64.20;;;;;;5058524;28;43586;-59
2022/09/09 07:07:37;;;;;;;0.80;0.80;;;21.80;64.40;;;;;;5055231;28;43458;-59
2022/09/09 07:10:05;;;;;;;1.15;0.70;;;21.80;64.40;;;;;;5044921;28;43649;-59
2022/09/09 07:12:34;;;;;;;1.00;0.80;;;21.70;64.30;;;;;;5051786;28;44805;-59
2022/09/09 07:15:02;;;;;;;0.85;0.70;;;21.70;64.30;;;;;;5056308;28;43424;-59
2022/09/09 07:17:30;;;;;;;1.65;0.70;;;21.80;65.00;;;;;;5055322;28;43967;-59
2022/09/09 07:19:59;;;;;;;0.60;0.60;;;21.80;64.40;;;;;;5059921;28;43527;-59
2022/09/09 07:22:28;;;;;;;0.57;0.57;;;21.80;64.40;;;;;;5054570;28;44686;-59
2022/09/09 07:24:56;;;;;;;0.63;0.63;;;21.70;64.30;;;;;;5055935;28;43685;-60
2022/09/09 07:27:25;;;;;;;0.75;0.68;;;21.80;64.40;;;;;;5043205;28;43494;-59
2022/09/09 07:29:54;;;;;;;2.10;1.00;;;21.70;64.30;;;;;;5046119;28;43533;-59
2022/09/09 07:32:21;;;;;;;0.50;0.50;;;21.70;64.30;;;;;;5054555;28;43818;-61
2022/09/09 07:34:50;;;;;;;0.73;0.73;;;21.70;64.30;;;;;;5057737;28;43673;-59
2022/09/09 07:37:18;;;;;;;0.65;0.65;;;21.70;64.50;;;;;;5056535;28;43402;-59
2022/09/09 07:39:47;;;;;;;0.80;0.80;;;21.70;64.30;;;;;;5047714;28;43548;-59
2022/09/09 07:42:17;;;;;;;0.73;0.68;;;21.80;64.30;;;;;;5059917;28;44975;-59
2022/09/09 07:44:45;;;;;;;0.90;0.75;;;21.80;64.30;;;;;;5056983;28;43521;-59
2022/09/09 07:47:15;;;;;;;0.90;0.73;;;21.80;64.40;;;;;;5054761;28;43395;-59
2022/09/09 07:49:49;;;;;;;0.80;0.77;;;21.80;64.40;;;;;;5050341;28;43564;-59
2022/09/09 07:52:24;;;;;;;0.73;0.60;;;21.70;64.30;;;;;;5056622;28;43874;-59
2022/09/09 07:54:56;;;;;;;1.95;0.82;;;21.70;64.30;;;;;;5046709;28;43414;-59
2022/09/09 07:57:24;;;;;;;1.35;0.85;;;21.80;64.40;;;;;;5048385;28;43487;-59
2022/09/09 07:59:53;;;;;;;0.50;0.50;;;21.70;64.30;;;;;;5054640;28;43550;-59
2022/09/09 08:02:21;;;;;;;1.63;0.70;;;21.70;64.30;;;;;;5056841;28;44938;-59
2022/09/09 08:04:49;;;;;;;0.77;0.70;;;21.70;64.30;;;;;;5042885;28;43524;-59
2022/09/09 08:07:18;;;;;;;0.80;0.80;;;21.80;64.30;;;;;;5047943;28;43534;-59
2022/09/09 08:09:50;;;;;;;0.80;0.80;;;21.80;64.40;;;;;;5055043;28;44047;-60
2022/09/09 08:12:25;;;;;;;0.60;0.60;;;21.80;64.40;;;;;;5040762;28;43936;-59
2022/09/09 08:14:53;;;;;;;0.98;0.70;;;21.80;64.30;;;;;;5043157;28;43417;-59
2022/09/09 08:17:24;;;;;;;0.70;0.65;;;21.70;64.20;;;;;;5051298;28;43442;-59
2022/09/09 08:19:53;;;;;;;0.80;0.80;;;21.80;64.30;;;;;;5052672;28;43629;-59
2022/09/09 08:22:26;;;;;;;1.02;0.80;;;21.70;64.20;;;;;;5055590;28;44972;-59
2022/09/09 08:24:54;;;;;;;0.65;0.65;;;21.80;64.20;;;;;;5044741;28;43419;-59
2022/09/09 08:27:22;;;;;;;0.70;0.70;;;21.70;64.30;;;;;;5055560;28;43498;-59
2022/09/09 08:29:51;;;;;;;1.33;0.77;;;21.80;64.20;;;;;;5059664;28;43558;-60
2022/09/09 08:32:19;;;;;;;1.05;0.77;;;21.80;64.30;;;;;;5046794;28;44050;-59
2022/09/09 08:34:47;;;;;;;2.13;1.20;;;21.80;64.30;;;;;;5074331;28;43589;-59
2022/09/09 08:37:22;;;;;;;2.25;0.88;;;21.80;64.20;;;;;;5059262;28;43408;-59
2022/09/09 08:39:50;;;;;;;1.73;1.00;;;21.80;65.00;;;;;;5060460;28;43452;-59
2022/09/09 08:42:49;;;;;;;1.33;1.23;;;21.80;64.30;;;;;;5049720;28;43781;-59
2022/09/09 08:45:34;;;;;;;1.75;1.20;;;21.80;64.30;;;;;;5085017;27;43982;-59
2022/09/09 08:48:34;;;;;;;2.70;1.10;;;21.80;64.40;;;;;;5059536;28;43421;-59
2022/09/09 08:51:07;;;;;;;1.98;1.05;;;21.80;64.30;;;;;;5057877;28;43533;-59
2022/09/09 08:53:49;;;;;;;1.42;0.85;;;21.80;64.30;;;;;;5052941;28;44990;-59
2022/09/09 08:56:21;;;;;;;1.08;0.80;;;21.80;64.30;;;;;;5063281;28;43429;-59
2022/09/09 08:58:54;;;;;;;2.42;0.90;;;21.80;64.30;;;;;;5062875;28;43563;-59
2022/09/09 09:01:50;;;;;;;1.38;0.93;;;21.80;64.40;;;;;;5066331;28;43560;-59
2022/09/09 09:04:31;;;;;;;0.88;0.85;;;21.90;64.50;;;;;;5056170;28;44013;-60
2022/09/09 09:07:10;;;;;;;2.88;1.20;;;21.90;64.40;;;;;;5061006;28;44262;-59
2022/09/09 09:09:51;;;;;;;0.93;0.65;;;21.80;64.30;;;;;;5042351;28;43492;-59
2022/09/09 09:12:25;;;;;;;0.98;0.80;;;21.90;64.30;;;;;;5092669;27;43434;-59
2022/09/09 09:14:58;;;;;;;1.52;1.00;;;21.90;64.30;;;;;;5060041;28;44088;-59
2022/09/09 09:17:31;;;;;;;1.50;1.00;;;21.90;64.60;;;;;;5078402;28;43968;-60
2022/09/09 09:19:59;;;;;;;0.88;0.77;;;21.90;64.30;;;;;;5054032;28;43434;-59
2022/09/09 09:22:34;;;;;;;1.67;1.00;;;21.90;64.30;;;;;;5057773;28;43478;-59
2022/09/09 09:25:33;;;;;;;0.98;0.90;;;21.90;64.30;;;;;;5058542;28;44099;-59
2022/09/09 09:28:17;;;;;;;0.73;0.73;;;21.90;64.20;;;;;;5051564;28;43993;-59
2022/09/09 09:30:52;;;;;;;1.65;0.98;;;21.90;64.30;;;;;;5050981;28;43452;-59
2022/09/09 09:33:40;;;;;;;1.42;0.70;;;21.90;64.30;;;;;;5053812;28;43481;-59
2022/09/09 09:36:08;;;;;;;1.58;0.93;;;21.90;64.40;;;;;;5052003;28;44297;-59
2022/09/09 09:38:39;;;;;;;2.47;1.25;;;21.90;64.40;;;;;;5046455;28;43388;-59
2022/09/09 09:41:49;;;;;;;1.00;0.90;;;21.90;64.40;;;;;;5052440;28;43538;-60
2022/09/09 09:44:27;;;;;;;1.00;0.90;;;21.90;64.40;;;;;;5051680;28;44262;-59
2022/09/09 09:47:21;;;;;;;0.70;0.70;;;21.90;64.40;;;;;;5060839;28;44466;-59
2022/09/09 09:50:04;;;;;;;2.22;1.13;;;21.90;64.30;;;;;;5057043;28;43667;-59
2022/09/09 09:52:36;;;;;;;1.00;0.80;;;21.90;64.60;;;;;;5045393;28;43484;-59
2022/09/09 09:55:13;;;;;;;2.35;0.88;;;22.00;64.50;;;;;;5055552;28;43523;-59
2022/09/09 09:57:44;;;;;;;1.23;0.85;;;22.00;64.50;;;;;;5051858;28;44303;-59
2022/09/09 10:00:17;;;;;;;0.98;0.90;;;22.00;64.40;;;;;;5056436;28;43487;-59
2022/09/09 10:02:52;;;;;;;1.13;0.95;;;22.00;64.50;;;;;;5060187;28;43498;-59
2022/09/09 10:05:27;;;;;;;1.00;0.90;;;22.00;64.40;;;;;;5052327;28;43506;-59
2022/09/09 10:08:12;;;;;;;0.80;0.68;;;22.10;65.20;;;;;;5050323;28;44337;-59
2022/09/09 10:11:04;;;;;;;2.83;1.10;;;22.00;64.40;;;;;;5056511;28;45884;-59
2022/09/09 10:13:54;;;;;;;0.82;0.82;;;22.10;64.50;;;;;;5050096;28;43473;-59
2022/09/09 10:16:45;;;;;;;1.90;0.80;;;22.10;64.50;;;;;;5049479;28;43520;-59
2022/09/09 10:19:15;;;;;;;;;;;22.10;64.70;;;;;;5059470;28;43807;-59
2022/09/09 10:21:49;;;;;;;1.50;0.75;;;22.00;64.50;;;;;;5061831;28;43403;-59
2022/09/09 10:24:22;;;;;;;0.80;0.80;;;22.00;64.70;;;;;;5057475;28;43479;-59
2022/09/09 10:26:53;;;;;;;1.85;0.95;;;22.00;64.70;;;;;;5051267;28;43468;-59
2022/09/09 10:29:35;;;;;;;1.25;0.90;;;22.10;64.70;;;;;;5056991;28;43523;-59
2022/09/09 10:32:11;;;;;;;1.20;0.90;;;22.10;64.70;;;;;;5059357;28;43941;-59
2022/09/09 10:35:02;;;;;;;1.17;0.70;;;22.10;64.70;;;;;;5047644;28;43471;-59
2022/09/09 10:38:04;;;;;;;0.80;0.80;;;22.10;64.60;;;;;;5052905;28;43469;-59
2022/09/09 10:41:05;;;;;;;2.63;1.25;;;22.10;64.70;;;;;;5043533;28;44740;-59
2022/09/09 10:44:13;;;;;;;1.17;0.98;;;22.10;64.90;;;;;;5069784;28;43577;-59
2022/09/09 10:47:04;;;;;;;1.38;0.90;;;22.10;65.10;;;;;;5061158;28;43419;-59
2022/09/09 10:49:55;;;;;;;2.03;1.10;;;22.10;65.00;;;;;;5062298;28;43515;-60
2022/09/09 10:53:02;;;;;;;1.50;0.90;;;22.10;65.20;;;;;;5059135;28;43670;-59
2022/09/09 10:55:39;;;;;;;1.00;0.90;;;22.10;65.20;;;;;;5058613;28;43424;-59
2022/09/09 10:58:15;;;;;;;2.28;0.90;;;22.10;65.20;;;;;;5060655;28;43530;-59
2022/09/09 11:00:49;;;;;;;1.50;1.00;;;22.10;65.20;;;;;;5059185;28;43591;-60
2022/09/09 11:03:29;;;;;;;1.38;0.82;;;22.20;65.30;;;;;;5057857;28;43907;-59
2022/09/09 11:06:03;;;;;;;1.58;1.02;;;22.20;65.10;;;;;;5059286;28;43385;-59
2022/09/09 11:08:35;;;;;;;2.08;1.15;;;22.30;65.40;;;;;;5062728;28;43497;-59
2022/09/09 11:11:11;;;;;;;1.63;0.80;;;22.30;65.20;;;;;;5059715;28;43593;-59
2022/09/09 11:13:52;;;;;;;1.70;0.80;;;22.30;65.10;;;;;;5057170;28;43792;-59
2022/09/09 11:16:41;;;;;;;1.50;0.90;;;22.30;65.20;;;;;;5058652;28;43538;-59
2022/09/09 11:19:34;;;;;;;1.90;1.00;;;22.30;65.10;;;;;;5053986;28;43400;-59
2022/09/09 11:22:23;;;;;;;1.42;1.08;;;22.30;65.10;;;;;;5055538;28;43511;-59
2022/09/09 11:25:23;;;;;;;1.27;1.08;;;22.30;65.10;;;;;;5060328;28;44089;-59
2022/09/09 11:28:02;;;;;;;3.07;1.20;;;22.40;65.20;;;;;;5050338;28;43590;-59
2022/09/09 11:30:36;;;;;;;1.10;1.00;;;22.40;65.00;;;;;;5058804;28;43397;-59
2022/09/09 11:33:34;;;;;;;2.20;1.10;;;22.40;64.80;;;;;;5055800;28;43532;-59
2022/09/09 11:36:39;;;;;;;1.98;1.00;;;22.40;64.90;;;;;;5050587;28;44059;-59
2022/09/09 11:39:28;;;;;;;2.05;1.10;;;22.40;65.00;;;;;;5048443;28;43435;-60
2022/09/09 11:42:14;;;;;;;1.83;0.90;;;22.40;64.90;;;;;;5065245;28;43498;-59
2022/09/09 11:44:42;;;;;;;2.97;0.90;;;22.50;65.00;;;;;;5058724;28;44095;-59
2022/09/09 11:47:30;;;;;;;1.27;0.98;;;22.50;65.00;;;;;;5046121;28;44056;-60
2022/09/09 11:50:23;;;;;;;2.00;0.90;;;22.50;65.00;;;;;;5048882;28;43501;-60
2022/09/09 11:52:53;;;;;;;1.83;0.95;;;22.50;64.80;;;;;;5058983;28;43362;-59
2022/09/09 11:55:34;;;;;;;1.67;1.00;;;22.50;64.80;;;;;;5060684;28;43402;-59
2022/09/09 11:58:15;;;;;;;2.83;1.02;;;22.50;64.60;;;;;;5054026;28;44633;-59
2022/09/09 12:00:45;;;;;;;1.73;1.00;;;22.50;64.70;;;;;;5058636;28;44031;-60
2022/09/09 12:03:44;;;;;;;1.58;0.93;;;22.60;64.60;;;;;;5055580;28;43798;-59
2022/09/09 12:06:20;;;;;;;1.15;0.90;;;22.60;64.50;;;;;;5053721;28;43640;-60
2022/09/09 12:08:54;;;;;;;2.22;0.90;;;22.60;64.50;;;;;;5055140;28;44976;-59
2022/09/09 12:11:27;;;;;;;1.55;1.00;;;22.60;64.40;;;;;;5063904;28;43400;-60
2022/09/09 12:14:00;;;;;;;1.70;1.13;;;22.70;64.40;;;;;;5052195;28;43458;-60
2022/09/09 12:16:35;;;;;;;1.67;0.95;;;22.70;64.40;;;;;;5050620;28;43613;-60
2022/09/09 12:19:21;;;;;;;1.73;0.70;;;22.70;64.50;;;;;;5059936;28;44031;-60
2022/09/09 12:22:07;;;;;;;1.58;0.93;;;22.70;64.40;;;;;;5044699;28;43478;-59
2022/09/09 12:24:44;;;;;;;2.08;1.00;;;22.70;64.40;;;;;;5047000;28;43412;-60
2022/09/09 12:27:26;;;;;;;1.33;0.82;;;22.70;64.40;;;;;;5093205;27;43474;-60
2022/09/09 12:30:03;;;;;;;2.80;1.20;;;22.70;64.40;;;;;;5063624;28;44040;-61
2022/09/09 12:32:31;;;;;;;2.35;1.30;;;22.70;64.40;;;;;;5058413;28;43423;-59
2022/09/09 12:35:05;;;;;;;2.25;1.00;;;22.70;64.40;;;;;;5052793;28;43505;-60
2022/09/09 12:37:39;;;;;;;1.70;1.10;;;22.70;64.30;;;;;;5058817;28;43446;-59
2022/09/09 12:40:19;;;;;;;1.23;0.90;;;22.70;64.30;;;;;;5061689;28;44845;-60
2022/09/09 12:42:47;;;;;;;1.25;1.00;;;22.70;64.30;;;;;;5053887;28;43495;-60
2022/09/09 12:45:26;;;;;;;0.88;0.80;;;22.70;64.30;;;;;;5057604;28;43527;-59
2022/09/09 12:48:09;;;;;;;1.48;0.88;;;22.70;64.40;;;;;;5061993;28;43479;-59
2022/09/09 12:50:43;;;;;;;1.80;0.80;;;22.70;64.40;;;;;;5062736;28;43808;-60
2022/09/09 12:53:28;;;;;;;1.75;1.00;;;22.70;64.40;;;;;;5055158;28;43519;-60
2022/09/09 12:56:02;;;;;;;1.73;0.95;;;22.70;64.30;;;;;;5054783;28;43421;-59
2022/09/09 12:58:34;;;;;;;2.20;0.90;;;22.70;64.20;;;;;;5065499;28;43525;-59
2022/09/09 13:01:04;;;;;;;2.03;0.93;;;22.70;64.30;;;;;;5053199;28;45023;-59
2022/09/09 13:03:42;;;;;;;0.90;0.70;;;22.70;64.90;;;;;;5051560;28;43656;-59
2022/09/09 13:06:14;;;;;;;1.00;0.90;;;22.70;64.30;;;;;;5060302;28;43461;-59
2022/09/09 13:08:41;;;;;;;1.27;0.88;;;22.70;64.30;;;;;;5064258;28;44043;-59
2022/09/09 13:11:35;;;;;;;0.85;0.80;;;22.80;64.30;;;;;;5051263;28;44639;-59
2022/09/09 13:14:04;;;;;;;1.23;0.88;;;22.80;64.20;;;;;;5054576;28;43527;-59
2022/09/09 13:16:36;;;;;;;1.35;1.02;;;22.80;64.20;;;;;;5061218;28;43411;-59
2022/09/09 13:19:14;;;;;;;2.00;1.00;;;22.80;64.10;;;;;;5063708;28;43404;-60
2022/09/09 13:21:42;;;;;;;1.52;0.90;;;22.80;64.20;;;;;;5057165;28;43796;-59
2022/09/09 13:24:29;;;;;;;1.25;0.90;;;22.80;64.10;;;;;;5059089;28;43471;-59
2022/09/09 13:27:26;;;;;;;1.48;1.00;;;22.80;64.00;;;;;;5062873;28;43475;-59
2022/09/09 13:29:56;;;;;;;3.13;0.98;;;22.80;64.00;;;;;;5047586;28;43510;-59
2022/09/09 13:32:26;;;;;;;2.08;1.00;;;22.80;64.10;;;;;;5054328;28;43700;-59